Portada
METAR-TAF:

METAR-TAF

Aeroports :

Faro, Portugal

latitud: 37-01N, longitud: 007-58W, altitud: 7 m

Observació

L'informe es va fer fa 37 minuts, a les 20:00 UTC
Vent 8 kt del Oest/Nord-Oest
Temperatura 12°C
Humitat 82%
Pressió 1022 hPa
Visibilitat 10 km o més
Escasses núvols a una alçada de 1900 ft
Núvols disperses a una alçada de 3400 ft

METAR: LPFR 222000Z 30008KT 9999 FEW019 SCT034 12/09 Q1022

Hora: 20:37 (20:37 UTC)

Pronòstic

L'informe es va fer fa 3 hores i 37 minuts, a les 17:00 UTC
Pronòstic vàlid del 22 a les 18 UTC al 23 a les 18 UTC
Vent 13 kt del Oest/Nord-Oest
Visibilitat 10 km o més
Núvols disperses a una alçada de 4500 ft
Temporalment
l' 22 a les 18 UTC al 23 a les 18 UTC
Vent 15 kt del Nord-Oest amb ràfegues de 25 kt
Cel ennuvolat a una alçada de 4000 ft

TAF: LPFR 221700Z 2218/2318 30013KT 9999 SCT045 TEMPO 2218/2318 31015G25KT BKN040

Observacions i pronòstics meteorològics de més de 4000 aeroports (METAR i TAF).

Les estacions disponibles són els punts grocs i vermells al mapa.

Posi el ratolí al punt desitjat per veure el nom de l'estació.

Feu clic per veure les observacions i els pronòstics meteorològics.

Per canviar el mapa: feu clic els botons verds amb una creu de color negre per apropar; al botó verd amb un guió per allunyar la imatge; o en les fletxes verdes per a mapes adjacents.


METAR-TAF: